sensor_id;sensor_type;location;lat;lon;timestamp;temperature;humidity
254;DHT22;590;48.772;8.846;2023-03-22T00:01:22;17.20;6.10
254;DHT22;590;48.772;8.846;2023-03-22T00:03:52;17.20;6.10
254;DHT22;590;48.772;8.846;2023-03-22T00:06:20;17.20;6.10
254;DHT22;590;48.772;8.846;2023-03-22T00:08:49;17.20;6.10
254;DHT22;590;48.772;8.846;2023-03-22T00:11:18;17.20;6.10
254;DHT22;590;48.772;8.846;2023-03-22T00:13:46;17.20;6.10
254;DHT22;590;48.772;8.846;2023-03-22T00:16:14;17.20;6.10
254;DHT22;590;48.772;8.846;2023-03-22T00:18:43;17.20;6.10
254;DHT22;590;48.772;8.846;2023-03-22T00:21:14;17.20;6.10
254;DHT22;590;48.772;8.846;2023-03-22T00:23:42;17.20;6.10
254;DHT22;590;48.772;8.846;2023-03-22T00:26:12;17.20;6.10
254;DHT22;590;48.772;8.846;2023-03-22T00:28:40;17.20;6.10
254;DHT22;590;48.772;8.846;2023-03-22T00:31:09;17.20;6.10
254;DHT22;590;48.772;8.846;2023-03-22T00:33:37;17.20;6.10
254;DHT22;590;48.772;8.846;2023-03-22T00:36:07;17.20;6.10
254;DHT22;590;48.772;8.846;2023-03-22T00:38:38;17.20;6.10
254;DHT22;590;48.772;8.846;2023-03-22T00:41:11;17.20;6.20
254;DHT22;590;48.772;8.846;2023-03-22T00:43:40;17.10;6.00
254;DHT22;590;48.772;8.846;2023-03-22T00:46:08;17.10;6.00
254;DHT22;590;48.772;8.846;2023-03-22T00:48:37;17.10;6.00
254;DHT22;590;48.772;8.846;2023-03-22T00:51:06;17.10;6.00
254;DHT22;590;48.772;8.846;2023-03-22T00:53:34;17.10;6.00
254;DHT22;590;48.772;8.846;2023-03-22T00:56:05;17.10;6.00
254;DHT22;590;48.772;8.846;2023-03-22T00:58:33;17.10;6.00
254;DHT22;590;48.772;8.846;2023-03-22T01:01:01;17.10;6.00
254;DHT22;590;48.772;8.846;2023-03-22T01:03:29;17.10;6.00
254;DHT22;590;48.772;8.846;2023-03-22T01:05:59;17.10;5.90
254;DHT22;590;48.772;8.846;2023-03-22T01:08:27;17.10;5.90
254;DHT22;590;48.772;8.846;2023-03-22T01:10:59;17.10;6.00
254;DHT22;590;48.772;8.846;2023-03-22T01:13:29;17.10;6.00
254;DHT22;590;48.772;8.846;2023-03-22T01:15:57;17.10;5.90
254;DHT22;590;48.772;8.846;2023-03-22T01:18:25;17.10;5.90
254;DHT22;590;48.772;8.846;2023-03-22T01:20:53;17.10;5.90
254;DHT22;590;48.772;8.846;2023-03-22T01:23:21;17.10;5.90
254;DHT22;590;48.772;8.846;2023-03-22T01:25:49;17.10;5.90
254;DHT22;590;48.772;8.846;2023-03-22T01:28:17;17.10;5.90
254;DHT22;590;48.772;8.846;2023-03-22T01:30:46;17.10;5.90
254;DHT22;590;48.772;8.846;2023-03-22T01:33:14;17.00;5.80
254;DHT22;590;48.772;8.846;2023-03-22T01:35:42;17.10;5.90
254;DHT22;590;48.772;8.846;2023-03-22T01:38:10;17.10;5.90
254;DHT22;590;48.772;8.846;2023-03-22T01:40:38;17.10;5.90
254;DHT22;590;48.772;8.846;2023-03-22T01:43:12;17.10;5.90
254;DHT22;590;48.772;8.846;2023-03-22T01:45:42;17.10;5.90
254;DHT22;590;48.772;8.846;2023-03-22T01:48:19;17.00;5.80
254;DHT22;590;48.772;8.846;2023-03-22T01:50:54;17.00;5.80
254;DHT22;590;48.772;8.846;2023-03-22T01:53:25;17.10;5.90
254;DHT22;590;48.772;8.846;2023-03-22T01:55:56;17.00;5.80
254;DHT22;590;48.772;8.846;2023-03-22T01:58:25;17.00;5.80
254;DHT22;590;48.772;8.846;2023-03-22T02:00:53;17.00;5.80
254;DHT22;590;48.772;8.846;2023-03-22T02:03:29;17.00;5.70
254;DHT22;590;48.772;8.846;2023-03-22T02:05:59;17.00;5.70
254;DHT22;590;48.772;8.846;2023-03-22T02:08:27;17.00;5.80
254;DHT22;590;48.772;8.846;2023-03-22T02:10:55;17.00;5.70
254;DHT22;590;48.772;8.846;2023-03-22T02:13:32;17.00;5.70
254;DHT22;590;48.772;8.846;2023-03-22T02:16:13;17.00;5.70
254;DHT22;590;48.772;8.846;2023-03-22T02:19:04;17.00;5.70
254;DHT22;590;48.772;8.846;2023-03-22T02:21:51;17.00;5.70
254;DHT22;590;48.772;8.846;2023-03-22T02:24:46;17.00;5.70
254;DHT22;590;48.772;8.846;2023-03-22T02:27:45;17.00;5.70
254;DHT22;590;48.772;8.846;2023-03-22T02:30:30;17.00;5.70
254;DHT22;590;48.772;8.846;2023-03-22T02:33:27;17.00;5.70
254;DHT22;590;48.772;8.846;2023-03-22T02:36:32;17.00;5.70
254;DHT22;590;48.772;8.846;2023-03-22T02:39:30;17.00;5.70
254;DHT22;590;48.772;8.846;2023-03-22T02:42:07;17.00;5.70
254;DHT22;590;48.772;8.846;2023-03-22T02:44:41;17.00;5.70
254;DHT22;590;48.772;8.846;2023-03-22T02:47:18;17.00;5.70
254;DHT22;590;48.772;8.846;2023-03-22T02:49:53;17.00;5.70
254;DHT22;590;48.772;8.846;2023-03-22T02:52:26;17.00;5.70
254;DHT22;590;48.772;8.846;2023-03-22T02:55:03;16.90;5.60
254;DHT22;590;48.772;8.846;2023-03-22T02:57:34;17.00;5.60
254;DHT22;590;48.772;8.846;2023-03-22T03:00:05;16.90;5.50
254;DHT22;590;48.772;8.846;2023-03-22T03:02:38;16.90;5.60
254;DHT22;590;48.772;8.846;2023-03-22T03:05:09;16.90;5.60
254;DHT22;590;48.772;8.846;2023-03-22T03:07:40;16.90;5.50
254;DHT22;590;48.772;8.846;2023-03-22T03:10:13;16.90;5.50
254;DHT22;590;48.772;8.846;2023-03-22T03:12:42;16.90;5.50
254;DHT22;590;48.772;8.846;2023-03-22T03:15:13;16.90;5.50
254;DHT22;590;48.772;8.846;2023-03-22T03:17:52;16.90;5.50
254;DHT22;590;48.772;8.846;2023-03-22T03:20:26;16.90;5.50
254;DHT22;590;48.772;8.846;2023-03-22T03:23:11;16.90;5.40
254;DHT22;590;48.772;8.846;2023-03-22T03:25:47;16.90;5.40
254;DHT22;590;48.772;8.846;2023-03-22T03:28:25;16.90;5.40
254;DHT22;590;48.772;8.846;2023-03-22T03:31:11;16.90;5.40
254;DHT22;590;48.772;8.846;2023-03-22T03:33:44;16.90;5.40
254;DHT22;590;48.772;8.846;2023-03-22T03:36:16;16.90;5.40
254;DHT22;590;48.772;8.846;2023-03-22T03:38:47;16.90;5.40
254;DHT22;590;48.772;8.846;2023-03-22T03:41:21;16.90;5.40
254;DHT22;590;48.772;8.846;2023-03-22T03:43:52;16.90;5.40
254;DHT22;590;48.772;8.846;2023-03-22T03:46:21;16.90;5.40
254;DHT22;590;48.772;8.846;2023-03-22T03:48:51;16.90;5.30
254;DHT22;590;48.772;8.846;2023-03-22T03:51:19;16.90;5.40
254;DHT22;590;48.772;8.846;2023-03-22T03:53:47;16.90;5.90
254;DHT22;590;48.772;8.846;2023-03-22T03:56:15;16.90;5.30
254;DHT22;590;48.772;8.846;2023-03-22T03:58:44;16.90;5.30
254;DHT22;590;48.772;8.846;2023-03-22T04:01:12;16.90;5.30
254;DHT22;590;48.772;8.846;2023-03-22T04:03:40;16.90;5.30
254;DHT22;590;48.772;8.846;2023-03-22T04:06:08;16.90;5.30
254;DHT22;590;48.772;8.846;2023-03-22T04:08:36;16.90;5.80
254;DHT22;590;48.772;8.846;2023-03-22T04:11:04;16.90;5.30
254;DHT22;590;48.772;8.846;2023-03-22T04:13:32;16.90;5.30
254;DHT22;590;48.772;8.846;2023-03-22T04:16:02;16.90;5.30
254;DHT22;590;48.772;8.846;2023-03-22T04:18:30;16.90;5.30
254;DHT22;590;48.772;8.846;2023-03-22T04:20:58;16.90;5.30
254;DHT22;590;48.772;8.846;2023-03-22T04:23:26;16.90;5.20
254;DHT22;590;48.772;8.846;2023-03-22T04:25:54;16.90;5.20
254;DHT22;590;48.772;8.846;2023-03-22T04:28:25;16.90;5.10
254;DHT22;590;48.772;8.846;2023-03-22T04:30:53;16.90;5.20
254;DHT22;590;48.772;8.846;2023-03-22T04:33:24;16.90;5.10
254;DHT22;590;48.772;8.846;2023-03-22T04:35:52;16.90;5.00
254;DHT22;590;48.772;8.846;2023-03-22T04:38:23;16.90;5.00
254;DHT22;590;48.772;8.846;2023-03-22T04:40:51;16.90;5.10
254;DHT22;590;48.772;8.846;2023-03-22T04:43:19;17.00;5.10
254;DHT22;590;48.772;8.846;2023-03-22T04:45:47;17.00;5.10
254;DHT22;590;48.772;8.846;2023-03-22T04:48:15;17.00;5.00
254;DHT22;590;48.772;8.846;2023-03-22T04:50:47;17.00;5.00
254;DHT22;590;48.772;8.846;2023-03-22T04:53:19;17.00;5.00
254;DHT22;590;48.772;8.846;2023-03-22T04:55:53;17.00;5.00
254;DHT22;590;48.772;8.846;2023-03-22T04:58:23;17.10;5.10
254;DHT22;590;48.772;8.846;2023-03-22T05:00:52;17.00;5.00
254;DHT22;590;48.772;8.846;2023-03-22T05:03:20;17.10;5.00
254;DHT22;590;48.772;8.846;2023-03-22T05:05:50;17.10;5.00
254;DHT22;590;48.772;8.846;2023-03-22T05:08:19;17.10;5.00
254;DHT22;590;48.772;8.846;2023-03-22T05:10:47;17.10;5.00
254;DHT22;590;48.772;8.846;2023-03-22T05:13:15;17.10;5.00
254;DHT22;590;48.772;8.846;2023-03-22T05:15:43;17.10;4.90
254;DHT22;590;48.772;8.846;2023-03-22T05:18:12;17.10;4.90
254;DHT22;590;48.772;8.846;2023-03-22T05:20:41;17.10;4.90
254;DHT22;590;48.772;8.846;2023-03-22T05:23:10;17.20;5.00
254;DHT22;590;48.772;8.846;2023-03-22T05:25:39;17.20;5.00
254;DHT22;590;48.772;8.846;2023-03-22T05:28:17;17.20;4.90
254;DHT22;590;48.772;8.846;2023-03-22T05:30:48;17.20;4.90
254;DHT22;590;48.772;8.846;2023-03-22T05:33:17;17.20;4.90
254;DHT22;590;48.772;8.846;2023-03-22T05:35:48;17.20;4.90
254;DHT22;590;48.772;8.846;2023-03-22T05:38:18;17.20;4.90
254;DHT22;590;48.772;8.846;2023-03-22T05:40:48;17.20;4.90
254;DHT22;590;48.772;8.846;2023-03-22T05:43:16;17.20;4.90
254;DHT22;590;48.772;8.846;2023-03-22T05:45:44;17.20;4.80
254;DHT22;590;48.772;8.846;2023-03-22T05:48:13;17.20;4.90
254;DHT22;590;48.772;8.846;2023-03-22T05:50:41;17.20;4.90
254;DHT22;590;48.772;8.846;2023-03-22T05:53:09;17.20;4.90
254;DHT22;590;48.772;8.846;2023-03-22T05:55:39;17.20;4.90
254;DHT22;590;48.772;8.846;2023-03-22T05:58:07;17.20;4.90
254;DHT22;590;48.772;8.846;2023-03-22T06:00:36;17.20;4.90
254;DHT22;590;48.772;8.846;2023-03-22T06:03:05;17.20;4.90
254;DHT22;590;48.772;8.846;2023-03-22T06:05:33;17.20;5.00
254;DHT22;590;48.772;8.846;2023-03-22T06:08:02;17.20;4.90
254;DHT22;590;48.772;8.846;2023-03-22T06:10:30;17.20;4.90
254;DHT22;590;48.772;8.846;2023-03-22T06:13:00;17.20;4.90
254;DHT22;590;48.772;8.846;2023-03-22T06:15:28;17.20;4.90
254;DHT22;590;48.772;8.846;2023-03-22T06:17:56;17.20;4.90
254;DHT22;590;48.772;8.846;2023-03-22T06:20:24;17.20;4.90
254;DHT22;590;48.772;8.846;2023-03-22T06:22:52;17.20;4.90
254;DHT22;590;48.772;8.846;2023-03-22T06:25:20;17.20;4.90
254;DHT22;590;48.772;8.846;2023-03-22T06:27:48;17.20;4.90
254;DHT22;590;48.772;8.846;2023-03-22T06:30:18;17.20;4.90
254;DHT22;590;48.772;8.846;2023-03-22T06:32:46;17.20;4.90
254;DHT22;590;48.772;8.846;2023-03-22T06:35:14;17.20;4.90
254;DHT22;590;48.772;8.846;2023-03-22T06:37:42;17.20;4.90
254;DHT22;590;48.772;8.846;2023-03-22T06:40:10;17.30;5.00
254;DHT22;590;48.772;8.846;2023-03-22T06:42:38;17.30;5.50
254;DHT22;590;48.772;8.846;2023-03-22T06:45:07;17.30;5.00
254;DHT22;590;48.772;8.846;2023-03-22T06:47:36;17.30;5.00
254;DHT22;590;48.772;8.846;2023-03-22T06:50:05;17.30;5.00
254;DHT22;590;48.772;8.846;2023-03-22T06:52:33;17.30;5.00
254;DHT22;590;48.772;8.846;2023-03-22T06:55:01;17.30;5.00
254;DHT22;590;48.772;8.846;2023-03-22T06:57:29;17.30;5.00
254;DHT22;590;48.772;8.846;2023-03-22T06:59:57;17.30;5.00
254;DHT22;590;48.772;8.846;2023-03-22T07:02:25;17.30;5.00
254;DHT22;590;48.772;8.846;2023-03-22T07:04:55;17.30;5.00
254;DHT22;590;48.772;8.846;2023-03-22T07:07:23;17.30;5.00
254;DHT22;590;48.772;8.846;2023-03-22T07:09:50;17.30;5.00
254;DHT22;590;48.772;8.846;2023-03-22T07:12:19;17.30;5.00
254;DHT22;590;48.772;8.846;2023-03-22T07:14:53;17.30;5.00
254;DHT22;590;48.772;8.846;2023-03-22T07:17:21;17.30;5.00
254;DHT22;590;48.772;8.846;2023-03-22T07:19:49;17.30;4.90
254;DHT22;590;48.772;8.846;2023-03-22T07:22:18;17.30;5.00
254;DHT22;590;48.772;8.846;2023-03-22T07:24:48;17.30;4.90
254;DHT22;590;48.772;8.846;2023-03-22T07:27:25;17.30;5.00
254;DHT22;590;48.772;8.846;2023-03-22T07:29:53;17.30;5.00
254;DHT22;590;48.772;8.846;2023-03-22T07:32:21;17.30;5.00
254;DHT22;590;48.772;8.846;2023-03-22T07:34:49;17.30;4.90
254;DHT22;590;48.772;8.846;2023-03-22T07:37:18;17.30;4.90
254;DHT22;590;48.772;8.846;2023-03-22T07:39:46;17.30;4.90
254;DHT22;590;48.772;8.846;2023-03-22T07:42:14;17.30;5.00
254;DHT22;590;48.772;8.846;2023-03-22T07:44:46;17.40;5.00
254;DHT22;590;48.772;8.846;2023-03-22T07:47:15;17.30;5.00
254;DHT22;590;48.772;8.846;2023-03-22T07:49:59;17.40;5.10
254;DHT22;590;48.772;8.846;2023-03-22T07:52:29;17.30;5.00
254;DHT22;590;48.772;8.846;2023-03-22T07:54:57;17.40;5.00
254;DHT22;590;48.772;8.846;2023-03-22T07:57:25;17.30;4.90
254;DHT22;590;48.772;8.846;2023-03-22T07:59:53;17.40;5.10
254;DHT22;590;48.772;8.846;2023-03-22T08:02:22;17.40;5.00
254;DHT22;590;48.772;8.846;2023-03-22T08:04:50;17.40;5.60
254;DHT22;590;48.772;8.846;2023-03-22T08:07:22;17.40;5.00
254;DHT22;590;48.772;8.846;2023-03-22T08:09:52;17.30;4.90
254;DHT22;590;48.772;8.846;2023-03-22T08:12:20;17.40;5.00
254;DHT22;590;48.772;8.846;2023-03-22T08:14:48;17.40;5.00
254;DHT22;590;48.772;8.846;2023-03-22T08:17:17;17.40;5.00
254;DHT22;590;48.772;8.846;2023-03-22T08:19:45;17.40;5.00
254;DHT22;590;48.772;8.846;2023-03-22T08:22:13;17.40;5.00
254;DHT22;590;48.772;8.846;2023-03-22T08:24:41;17.40;5.00
254;DHT22;590;48.772;8.846;2023-03-22T08:27:11;17.40;5.00
254;DHT22;590;48.772;8.846;2023-03-22T08:29:40;17.40;5.00
254;DHT22;590;48.772;8.846;2023-03-22T08:32:08;17.40;5.10
254;DHT22;590;48.772;8.846;2023-03-22T08:34:36;17.40;5.00
254;DHT22;590;48.772;8.846;2023-03-22T08:37:04;17.40;5.10
254;DHT22;590;48.772;8.846;2023-03-22T08:39:33;17.40;5.00
254;DHT22;590;48.772;8.846;2023-03-22T08:42:02;17.40;5.00
254;DHT22;590;48.772;8.846;2023-03-22T08:44:32;17.40;5.00
254;DHT22;590;48.772;8.846;2023-03-22T08:47:00;17.40;5.00
254;DHT22;590;48.772;8.846;2023-03-22T08:49:28;17.40;5.10
254;DHT22;590;48.772;8.846;2023-03-22T08:51:58;17.40;5.10
254;DHT22;590;48.772;8.846;2023-03-22T08:54:26;17.40;5.10
254;DHT22;590;48.772;8.846;2023-03-22T08:56:59;17.40;5.10
254;DHT22;590;48.772;8.846;2023-03-22T08:59:29;17.40;5.10
254;DHT22;590;48.772;8.846;2023-03-22T09:01:58;17.40;5.20
254;DHT22;590;48.772;8.846;2023-03-22T09:04:26;17.40;5.10
254;DHT22;590;48.772;8.846;2023-03-22T09:06:54;17.40;5.10
254;DHT22;590;48.772;8.846;2023-03-22T09:09:22;17.40;5.10
254;DHT22;590;48.772;8.846;2023-03-22T09:11:50;17.30;5.10
254;DHT22;590;48.772;8.846;2023-03-22T09:14:18;17.40;5.20
254;DHT22;590;48.772;8.846;2023-03-22T09:16:46;17.30;5.00
254;DHT22;590;48.772;8.846;2023-03-22T09:19:16;17.30;5.10
254;DHT22;590;48.772;8.846;2023-03-22T09:21:44;17.30;5.10
254;DHT22;590;48.772;8.846;2023-03-22T09:24:12;17.30;5.10
254;DHT22;590;48.772;8.846;2023-03-22T09:26:40;17.30;5.10
254;DHT22;590;48.772;8.846;2023-03-22T09:29:08;17.30;5.10
254;DHT22;590;48.772;8.846;2023-03-22T09:31:36;17.30;5.10
254;DHT22;590;48.772;8.846;2023-03-22T09:34:04;17.30;5.20
254;DHT22;590;48.772;8.846;2023-03-22T09:36:33;17.30;5.20
254;DHT22;590;48.772;8.846;2023-03-22T09:39:01;17.30;5.10
254;DHT22;590;48.772;8.846;2023-03-22T09:41:36;17.30;5.20
254;DHT22;590;48.772;8.846;2023-03-22T09:44:10;17.30;5.10
254;DHT22;590;48.772;8.846;2023-03-22T09:46:41;17.30;5.20
254;DHT22;590;48.772;8.846;2023-03-22T09:49:15;17.30;5.20
254;DHT22;590;48.772;8.846;2023-03-22T09:51:46;17.30;5.20
254;DHT22;590;48.772;8.846;2023-03-22T09:54:17;17.30;5.20
254;DHT22;590;48.772;8.846;2023-03-22T09:56:49;17.30;5.20
254;DHT22;590;48.772;8.846;2023-03-22T09:59:23;17.20;5.10
254;DHT22;590;48.772;8.846;2023-03-22T10:01:57;17.30;5.20
254;DHT22;590;48.772;8.846;2023-03-22T10:04:39;17.30;5.20
254;DHT22;590;48.772;8.846;2023-03-22T10:07:17;17.30;5.20
254;DHT22;590;48.772;8.846;2023-03-22T10:09:54;17.30;5.20
254;DHT22;590;48.772;8.846;2023-03-22T10:12:28;17.30;5.20
254;DHT22;590;48.772;8.846;2023-03-22T10:15:03;17.20;5.10
254;DHT22;590;48.772;8.846;2023-03-22T10:17:33;17.30;5.20
254;DHT22;590;48.772;8.846;2023-03-22T10:20:05;17.20;5.20
254;DHT22;590;48.772;8.846;2023-03-22T10:22:39;17.30;5.20
254;DHT22;590;48.772;8.846;2023-03-22T10:25:08;17.30;5.30
254;DHT22;590;48.772;8.846;2023-03-22T10:27:42;17.20;5.20
254;DHT22;590;48.772;8.846;2023-03-22T10:30:19;17.30;5.20
254;DHT22;590;48.772;8.846;2023-03-22T10:32:51;17.20;5.10
254;DHT22;590;48.772;8.846;2023-03-22T10:35:24;17.30;5.20
254;DHT22;590;48.772;8.846;2023-03-22T10:37:55;17.20;5.10
254;DHT22;590;48.772;8.846;2023-03-22T10:40:26;17.20;5.20
254;DHT22;590;48.772;8.846;2023-03-22T10:42:56;17.20;5.10
254;DHT22;590;48.772;8.846;2023-03-22T10:45:26;17.20;5.10
254;DHT22;590;48.772;8.846;2023-03-22T10:47:57;17.20;5.20
254;DHT22;590;48.772;8.846;2023-03-22T10:50:29;17.30;5.30
254;DHT22;590;48.772;8.846;2023-03-22T10:53:02;17.20;5.10
254;DHT22;590;48.772;8.846;2023-03-22T10:55:31;17.30;5.20
254;DHT22;590;48.772;8.846;2023-03-22T10:58:11;17.20;5.20
254;DHT22;590;48.772;8.846;2023-03-22T11:00:43;17.20;5.10
254;DHT22;590;48.772;8.846;2023-03-22T11:03:25;17.20;5.20
254;DHT22;590;48.772;8.846;2023-03-22T11:05:58;17.20;5.20
254;DHT22;590;48.772;8.846;2023-03-22T11:08:28;17.20;5.20
254;DHT22;590;48.772;8.846;2023-03-22T11:10:56;17.20;5.20
254;DHT22;590;48.772;8.846;2023-03-22T11:13:26;17.20;5.20
254;DHT22;590;48.772;8.846;2023-03-22T11:15:59;17.20;5.20
254;DHT22;590;48.772;8.846;2023-03-22T11:18:30;17.20;5.20
254;DHT22;590;48.772;8.846;2023-03-22T11:21:04;17.20;5.20
254;DHT22;590;48.772;8.846;2023-03-22T11:23:34;17.20;5.20
254;DHT22;590;48.772;8.846;2023-03-22T11:26:07;17.20;5.20
254;DHT22;590;48.772;8.846;2023-03-22T11:28:39;17.20;5.20
254;DHT22;590;48.772;8.846;2023-03-22T11:31:10;17.20;5.20
254;DHT22;590;48.772;8.846;2023-03-22T11:33:53;17.20;5.20
254;DHT22;590;48.772;8.846;2023-03-22T11:36:21;17.20;5.20
254;DHT22;590;48.772;8.846;2023-03-22T11:38:57;17.20;5.20
254;DHT22;590;48.772;8.846;2023-03-22T11:41:27;17.20;5.20
254;DHT22;590;48.772;8.846;2023-03-22T11:43:57;17.20;5.20
254;DHT22;590;48.772;8.846;2023-03-22T11:46:28;17.20;5.20
254;DHT22;590;48.772;8.846;2023-03-22T11:49:01;17.20;5.20
254;DHT22;590;48.772;8.846;2023-03-22T11:51:30;17.20;5.20
254;DHT22;590;48.772;8.846;2023-03-22T11:54:06;17.20;5.20
254;DHT22;590;48.772;8.846;2023-03-22T11:56:39;17.20;5.20
254;DHT22;590;48.772;8.846;2023-03-22T11:59:12;17.20;5.20
254;DHT22;590;48.772;8.846;2023-03-22T12:01:45;17.20;5.20
254;DHT22;590;48.772;8.846;2023-03-22T12:04:17;17.20;5.20
254;DHT22;590;48.772;8.846;2023-03-22T12:06:47;17.20;5.20
254;DHT22;590;48.772;8.846;2023-03-22T12:09:24;17.20;5.20
254;DHT22;590;48.772;8.846;2023-03-22T12:11:55;17.20;5.20
254;DHT22;590;48.772;8.846;2023-03-22T12:14:27;17.20;5.20
254;DHT22;590;48.772;8.846;2023-03-22T12:16:58;17.20;5.20
254;DHT22;590;48.772;8.846;2023-03-22T12:19:48;17.20;5.20
254;DHT22;590;48.772;8.846;2023-03-22T12:22:20;17.20;5.30
254;DHT22;590;48.772;8.846;2023-03-22T12:24:51;17.20;5.30
254;DHT22;590;48.772;8.846;2023-03-22T12:27:21;17.20;5.30
254;DHT22;590;48.772;8.846;2023-03-22T12:29:53;17.20;5.30
254;DHT22;590;48.772;8.846;2023-03-22T12:32:25;17.20;5.20
254;DHT22;590;48.772;8.846;2023-03-22T12:34:56;17.20;5.20
254;DHT22;590;48.772;8.846;2023-03-22T12:37:45;17.20;5.20
254;DHT22;590;48.772;8.846;2023-03-22T12:40:19;17.20;5.20
254;DHT22;590;48.772;8.846;2023-03-22T12:42:55;17.20;5.20
254;DHT22;590;48.772;8.846;2023-03-22T12:45:27;17.30;5.30
254;DHT22;590;48.772;8.846;2023-03-22T12:48:01;17.20;5.10
254;DHT22;590;48.772;8.846;2023-03-22T12:50:33;17.30;5.20
254;DHT22;590;48.772;8.846;2023-03-22T12:53:04;17.30;5.30
254;DHT22;590;48.772;8.846;2023-03-22T12:55:35;17.30;5.20
254;DHT22;590;48.772;8.846;2023-03-22T12:58:04;17.30;5.20
254;DHT22;590;48.772;8.846;2023-03-22T13:00:37;17.30;5.20
254;DHT22;590;48.772;8.846;2023-03-22T13:03:19;17.30;5.20
254;DHT22;590;48.772;8.846;2023-03-22T13:05:59;17.30;5.20
254;DHT22;590;48.772;8.846;2023-03-22T13:09:02;17.30;5.30
254;DHT22;590;48.772;8.846;2023-03-22T13:11:32;17.30;5.30
254;DHT22;590;48.772;8.846;2023-03-22T13:14:00;17.30;5.30
254;DHT22;590;48.772;8.846;2023-03-22T13:16:47;17.20;5.10
254;DHT22;590;48.772;8.846;2023-03-22T13:19:26;17.20;5.20
254;DHT22;590;48.772;8.846;2023-03-22T13:22:18;17.20;5.20
254;DHT22;590;48.772;8.846;2023-03-22T13:25:06;17.20;5.20
254;DHT22;590;48.772;8.846;2023-03-22T13:27:40;17.20;5.20
254;DHT22;590;48.772;8.846;2023-03-22T13:30:16;17.20;5.20
254;DHT22;590;48.772;8.846;2023-03-22T13:32:50;17.20;5.20
254;DHT22;590;48.772;8.846;2023-03-22T13:35:24;17.20;5.20
254;DHT22;590;48.772;8.846;2023-03-22T13:38:00;17.20;5.30
254;DHT22;590;48.772;8.846;2023-03-22T13:40:33;17.20;5.20
254;DHT22;590;48.772;8.846;2023-03-22T13:43:19;17.20;5.20
254;DHT22;590;48.772;8.846;2023-03-22T13:46:25;17.20;5.20
254;DHT22;590;48.772;8.846;2023-03-22T13:49:14;17.20;5.20
254;DHT22;590;48.772;8.846;2023-03-22T13:51:44;17.20;5.20
254;DHT22;590;48.772;8.846;2023-03-22T13:54:16;17.20;5.20
254;DHT22;590;48.772;8.846;2023-03-22T13:56:52;17.20;5.20
254;DHT22;590;48.772;8.846;2023-03-22T13:59:28;17.20;5.30
254;DHT22;590;48.772;8.846;2023-03-22T14:02:01;17.20;5.20
254;DHT22;590;48.772;8.846;2023-03-22T14:04:35;17.20;5.20
254;DHT22;590;48.772;8.846;2023-03-22T14:07:11;17.20;5.20
254;DHT22;590;48.772;8.846;2023-03-22T14:09:49;17.20;5.20
254;DHT22;590;48.772;8.846;2023-03-22T14:12:20;17.20;5.20
254;DHT22;590;48.772;8.846;2023-03-22T14:15:15;17.20;5.20
254;DHT22;590;48.772;8.846;2023-03-22T14:17:45;17.20;5.20
254;DHT22;590;48.772;8.846;2023-03-22T14:20:18;17.20;5.20
254;DHT22;590;48.772;8.846;2023-03-22T14:22:50;17.20;5.80
254;DHT22;590;48.772;8.846;2023-03-22T14:25:21;17.20;5.20
254;DHT22;590;48.772;8.846;2023-03-22T14:27:48;17.20;5.20
254;DHT22;590;48.772;8.846;2023-03-22T14:30:26;17.20;5.20
254;DHT22;590;48.772;8.846;2023-03-22T14:32:55;17.20;5.20
254;DHT22;590;48.772;8.846;2023-03-22T14:35:29;17.20;5.20
254;DHT22;590;48.772;8.846;2023-03-22T14:38:00;17.20;5.20
254;DHT22;590;48.772;8.846;2023-03-22T14:40:30;17.20;5.20
254;DHT22;590;48.772;8.846;2023-03-22T14:43:11;17.20;5.20
254;DHT22;590;48.772;8.846;2023-03-22T14:45:40;17.20;5.20
254;DHT22;590;48.772;8.846;2023-03-22T14:48:14;17.20;5.20
254;DHT22;590;48.772;8.846;2023-03-22T14:50:46;17.20;5.20
254;DHT22;590;48.772;8.846;2023-03-22T14:53:15;17.20;5.20
254;DHT22;590;48.772;8.846;2023-03-22T14:55:44;17.20;5.20
254;DHT22;590;48.772;8.846;2023-03-22T14:58:15;17.20;5.20
254;DHT22;590;48.772;8.846;2023-03-22T15:00:44;17.20;5.20
254;DHT22;590;48.772;8.846;2023-03-22T15:03:14;17.20;5.20
254;DHT22;590;48.772;8.846;2023-03-22T15:05:44;17.20;5.20
254;DHT22;590;48.772;8.846;2023-03-22T15:08:21;17.20;5.20
254;DHT22;590;48.772;8.846;2023-03-22T15:10:50;17.20;5.20
254;DHT22;590;48.772;8.846;2023-03-22T15:13:19;17.20;5.20
254;DHT22;590;48.772;8.846;2023-03-22T15:15:49;17.20;5.20
254;DHT22;590;48.772;8.846;2023-03-22T15:18:19;17.20;5.20
254;DHT22;590;48.772;8.846;2023-03-22T15:20:48;17.20;5.20
254;DHT22;590;48.772;8.846;2023-03-22T15:23:17;17.20;5.20
254;DHT22;590;48.772;8.846;2023-03-22T15:25:45;17.20;5.20
254;DHT22;590;48.772;8.846;2023-03-22T15:28:15;17.20;5.20
254;DHT22;590;48.772;8.846;2023-03-22T15:30:44;17.20;5.20
254;DHT22;590;48.772;8.846;2023-03-22T15:33:19;17.20;5.20
254;DHT22;590;48.772;8.846;2023-03-22T15:35:48;17.20;5.20
254;DHT22;590;48.772;8.846;2023-03-22T15:38:22;17.20;5.30
254;DHT22;590;48.772;8.846;2023-03-22T15:40:51;17.20;5.20
254;DHT22;590;48.772;8.846;2023-03-22T15:43:20;17.20;5.30
254;DHT22;590;48.772;8.846;2023-03-22T15:46:15;17.20;5.20
254;DHT22;590;48.772;8.846;2023-03-22T15:48:46;17.20;5.20
254;DHT22;590;48.772;8.846;2023-03-22T15:51:15;17.20;5.30
254;DHT22;590;48.772;8.846;2023-03-22T15:53:44;17.20;5.20
254;DHT22;590;48.772;8.846;2023-03-22T15:56:23;17.10;5.20
254;DHT22;590;48.772;8.846;2023-03-22T15:58:53;17.20;5.30
254;DHT22;590;48.772;8.846;2023-03-22T16:01:21;17.10;5.20
254;DHT22;590;48.772;8.846;2023-03-22T16:03:54;17.20;5.20
254;DHT22;590;48.772;8.846;2023-03-22T16:06:22;17.20;5.20
254;DHT22;590;48.772;8.846;2023-03-22T16:08:49;17.20;5.20
254;DHT22;590;48.772;8.846;2023-03-22T16:11:18;17.20;5.20
254;DHT22;590;48.772;8.846;2023-03-22T16:13:46;17.20;5.20
254;DHT22;590;48.772;8.846;2023-03-22T16:16:15;17.20;5.20
254;DHT22;590;48.772;8.846;2023-03-22T16:18:42;17.20;5.20
254;DHT22;590;48.772;8.846;2023-03-22T16:21:13;17.20;5.20
254;DHT22;590;48.772;8.846;2023-03-22T16:23:41;17.20;5.20
254;DHT22;590;48.772;8.846;2023-03-22T16:26:12;17.20;5.20
254;DHT22;590;48.772;8.846;2023-03-22T16:28:39;17.20;5.20
254;DHT22;590;48.772;8.846;2023-03-22T16:31:11;17.20;5.20
254;DHT22;590;48.772;8.846;2023-03-22T16:33:39;17.20;5.20
254;DHT22;590;48.772;8.846;2023-03-22T16:36:08;17.20;5.20
254;DHT22;590;48.772;8.846;2023-03-22T16:38:37;17.20;5.20
254;DHT22;590;48.772;8.846;2023-03-22T16:41:05;17.20;5.10
254;DHT22;590;48.772;8.846;2023-03-22T16:43:33;17.20;5.10
254;DHT22;590;48.772;8.846;2023-03-22T16:46:00;17.30;5.20
254;DHT22;590;48.772;8.846;2023-03-22T16:48:27;17.30;5.20
254;DHT22;590;48.772;8.846;2023-03-22T16:50:54;17.30;5.20
254;DHT22;590;48.772;8.846;2023-03-22T16:53:21;17.30;5.20
254;DHT22;590;48.772;8.846;2023-03-22T16:55:49;17.30;5.20
254;DHT22;590;48.772;8.846;2023-03-22T16:58:16;17.30;5.20
254;DHT22;590;48.772;8.846;2023-03-22T17:00:43;17.30;5.10
254;DHT22;590;48.772;8.846;2023-03-22T17:03:13;17.30;5.10
254;DHT22;590;48.772;8.846;2023-03-22T17:05:41;17.30;5.10
254;DHT22;590;48.772;8.846;2023-03-22T17:08:16;17.30;5.10
254;DHT22;590;48.772;8.846;2023-03-22T17:10:44;17.30;5.20
254;DHT22;590;48.772;8.846;2023-03-22T17:13:13;17.30;5.20
254;DHT22;590;48.772;8.846;2023-03-22T17:15:42;17.30;5.20
254;DHT22;590;48.772;8.846;2023-03-22T17:18:09;17.30;5.20
254;DHT22;590;48.772;8.846;2023-03-22T17:20:38;17.30;5.20